Time;durP1;ratioP1;P1;durP2;ratioP2;P2;SDS_P1;SDS_P2;PMS_P1;PMS_P2;Temp;Humidity;BMP_temperature;BMP_pressure;BME280_temperature;BME280_humidity;BME280_pressure;Samples;Min_cycle;Max_cycle;Signal;HPM_P1;HPM_P2
2023/01/31 00:00:43;;;;;;;10.75;7.22;;;;;;;;;;4998068;28;20065;-70
2023/01/31 00:03:23;;;;;;;10.23;6.75;;;;;;;;;;4998640;28;20366;-68
2023/01/31 00:05:48;;;;;;;10.98;7.35;;;;;;;;;;4998447;28;20119;-70
2023/01/31 00:08:14;;;;;;;10.40;7.50;;;;;;;;;;5000091;28;20127;-71
2023/01/31 00:10:40;;;;;;;9.93;7.28;;;;;;;;;;4996758;28;20796;-72
2023/01/31 00:13:07;;;;;;;15.07;6.72;;;;;;;;;;4998896;28;20041;-66
2023/01/31 00:15:32;;;;;;;10.02;6.75;;;;;;;;;;5002232;28;20049;-67
2023/01/31 00:17:58;;;;;;;11.70;6.28;;;;;;;;;;5004065;28;20080;-69
2023/01/31 00:20:24;;;;;;;10.15;6.85;;;;;;;;;;5001796;28;20046;-71
2023/01/31 00:22:50;;;;;;;12.85;6.78;;;;;;;;;;5002773;28;20053;-68
2023/01/31 00:25:16;;;;;;;11.40;6.80;;;;;;;;;;5000907;28;20052;-68
2023/01/31 00:27:42;;;;;;;9.50;6.20;;;;;;;;;;4997659;28;20372;-69
2023/01/31 00:30:09;;;;;;;11.25;6.82;;;;;;;;;;4999811;28;20123;-69
2023/01/31 00:32:35;;;;;;;10.35;6.53;;;;;;;;;;4997834;28;20597;-67
2023/01/31 00:35:01;;;;;;;8.30;6.30;;;;;;;;;;4998374;28;20050;-66
2023/01/31 00:37:27;;;;;;;14.95;6.90;;;;;;;;;;4999137;28;20046;-70
2023/01/31 00:39:53;;;;;;;10.43;6.68;;;;;;;;;;5000489;28;20052;-68
2023/01/31 00:42:19;;;;;;;13.95;6.95;;;;;;;;;;4997610;28;20060;-68
2023/01/31 00:44:45;;;;;;;12.75;6.35;;;;;;;;;;4999693;28;20042;-69
2023/01/31 00:47:11;;;;;;;12.25;6.43;;;;;;;;;;4998816;28;20637;-68
2023/01/31 00:49:36;;;;;;;12.30;7.00;;;;;;;;;;5001636;28;20280;-67
2023/01/31 00:52:03;;;;;;;10.75;6.15;;;;;;;;;;4999165;28;20054;-70
2023/01/31 00:54:28;;;;;;;11.48;5.93;;;;;;;;;;4998399;28;20445;-65
2023/01/31 00:56:54;;;;;;;16.65;7.10;;;;;;;;;;4997991;28;20061;-69
2023/01/31 00:59:20;;;;;;;12.95;7.40;;;;;;;;;;4997231;28;20046;-68
2023/01/31 01:01:47;;;;;;;21.40;7.63;;;;;;;;;;4998475;28;20069;-66
2023/01/31 01:04:12;;;;;;;16.85;7.72;;;;;;;;;;4998712;28;20065;-70
2023/01/31 01:06:42;;;;;;;13.77;7.80;;;;;;;;;;4998857;28;20060;-68
2023/01/31 01:09:07;;;;;;;12.48;6.97;;;;;;;;;;5001142;28;20507;-65
2023/01/31 01:11:34;;;;;;;11.70;7.53;;;;;;;;;;5001108;28;20108;-65
2023/01/31 01:14:00;;;;;;;10.85;6.82;;;;;;;;;;4999191;28;20050;-67
2023/01/31 01:16:34;;;;;;;11.93;6.60;;;;;;;;;;4999646;28;20117;-69
2023/01/31 01:19:01;;;;;;;12.73;6.57;;;;;;;;;;4997140;28;20091;-72
2023/01/31 01:21:29;;;;;;;7.72;6.03;;;;;;;;;;4998876;28;20080;-69
2023/01/31 01:23:58;;;;;;;12.88;6.88;;;;;;;;;;4999072;28;20046;-68
2023/01/31 01:26:30;;;;;;;11.48;6.82;;;;;;;;;;4996175;28;20312;-65
2023/01/31 01:28:57;;;;;;;8.65;6.65;;;;;;;;;;4999435;28;20042;-70
2023/01/31 01:31:28;;;;;;;11.80;7.18;;;;;;;;;;4999311;28;20379;-72
2023/01/31 01:33:57;;;;;;;10.88;6.40;;;;;;;;;;4995590;28;20431;-66
2023/01/31 01:36:24;;;;;;;13.77;6.90;;;;;;;;;;4997503;28;20038;-68
2023/01/31 01:38:52;;;;;;;10.38;6.60;;;;;;;;;;5002164;28;20046;-68
2023/01/31 01:41:19;;;;;;;11.13;6.65;;;;;;;;;;5003375;28;20065;-72
2023/01/31 01:43:49;;;;;;;12.18;6.75;;;;;;;;;;5005189;28;20062;-68
2023/01/31 01:46:23;;;;;;;11.13;6.80;;;;;;;;;;5002220;28;20129;-70
2023/01/31 01:48:53;;;;;;;10.02;6.63;;;;;;;;;;5005111;28;20138;-67
2023/01/31 01:51:20;;;;;;;11.30;6.82;;;;;;;;;;4998190;28;20057;-69
2023/01/31 01:53:51;;;;;;;8.70;6.35;;;;;;;;;;5002793;28;20053;-71
2023/01/31 01:56:22;;;;;;;9.38;6.47;;;;;;;;;;5000778;28;20160;-69
2023/01/31 01:58:58;;;;;;;15.80;6.85;;;;;;;;;;5002068;28;20062;-68
2023/01/31 02:01:30;;;;;;;7.88;5.95;;;;;;;;;;4993998;28;20049;-69
2023/01/31 02:03:57;;;;;;;15.02;6.88;;;;;;;;;;5001463;28;20072;-68
2023/01/31 02:06:23;;;;;;;13.23;6.63;;;;;;;;;;5002354;28;20486;-66
2023/01/31 02:08:49;;;;;;;12.48;6.72;;;;;;;;;;5005204;28;20048;-68
2023/01/31 02:11:27;;;;;;;8.65;6.18;;;;;;;;;;4999713;28;20061;-67
2023/01/31 02:13:59;;;;;;;10.20;6.28;;;;;;;;;;5007125;28;20053;-67
2023/01/31 02:16:26;;;;;;;9.73;6.30;;;;;;;;;;5007009;28;20518;-64
2023/01/31 02:18:52;;;;;;;9.85;5.60;;;;;;;;;;5008922;28;20050;-64
2023/01/31 02:21:51;;;;;;;9.80;5.70;;;;;;;;;;5001556;28;22940;-71
2023/01/31 02:25:14;;;;;;;11.40;5.20;;;;;;;;;;5007954;28;20038;-66
2023/01/31 02:28:19;;;;;;;7.75;4.95;;;;;;;;;;4999531;28;20104;-65
2023/01/31 02:31:03;;;;;;;6.85;4.70;;;;;;;;;;5000972;28;20104;-67
2023/01/31 02:33:33;;;;;;;;;;;;;;;;;;5003238;28;20532;-66
2023/01/31 02:36:25;;;;;;;11.10;5.45;;;;;;;;;;5001527;28;20578;-66
2023/01/31 02:39:22;;;;;;;10.65;4.93;;;;;;;;;;5001393;28;20137;-65
2023/01/31 02:42:00;;;;;;;9.45;5.00;;;;;;;;;;4996615;28;20554;-66
2023/01/31 02:44:58;;;;;;;6.55;4.65;;;;;;;;;;4997202;28;20072;-69
2023/01/31 02:47:27;;;;;;;9.48;5.03;;;;;;;;;;4997678;28;20045;-65
2023/01/31 02:50:20;;;;;;;7.25;4.82;;;;;;;;;;4995623;28;20046;-66
2023/01/31 02:52:57;;;;;;;8.95;4.93;;;;;;;;;;4993795;28;20049;-68
2023/01/31 02:58:16;;;;;;;6.97;4.47;;;;;;;;;;5001870;28;20050;-68
2023/01/31 03:00:44;;;;;;;7.57;4.18;;;;;;;;;;5000504;28;20042;-71
2023/01/31 03:03:30;;;;;;;7.00;4.10;;;;;;;;;;5001013;28;20058;-65
2023/01/31 03:06:28;;;;;;;5.32;3.53;;;;;;;;;;4999678;28;20049;-66
2023/01/31 03:09:01;;;;;;;8.02;4.20;;;;;;;;;;4995639;28;20046;-67
2023/01/31 03:11:59;;;;;;;7.80;3.42;;;;;;;;;;5001479;28;20057;-69
2023/01/31 03:14:37;;;;;;;5.22;3.30;;;;;;;;;;4999718;28;20506;-69
2023/01/31 03:20:09;;;;;;;5.32;3.50;;;;;;;;;;4997943;28;20053;-67
2023/01/31 03:22:59;;;;;;;6.60;3.60;;;;;;;;;;4998099;28;20159;-67
2023/01/31 03:25:28;;;;;;;8.50;4.10;;;;;;;;;;5002129;28;20438;-67
2023/01/31 03:27:58;;;;;;;9.63;4.20;;;;;;;;;;4997866;28;20061;-67
2023/01/31 03:30:40;;;;;;;6.05;3.30;;;;;;;;;;5002563;28;20627;-67
2023/01/31 03:33:21;;;;;;;7.53;3.75;;;;;;;;;;5000645;28;20085;-65
2023/01/31 03:35:55;;;;;;;5.03;3.38;;;;;;;;;;5004030;28;20045;-67
2023/01/31 03:38:29;;;;;;;5.35;2.90;;;;;;;;;;5003020;28;20119;-69
2023/01/31 03:41:24;;;;;;;7.55;3.17;;;;;;;;;;5000439;28;20455;-68
2023/01/31 03:43:58;;;;;;;5.53;3.20;;;;;;;;;;5001087;28;20516;-67
2023/01/31 03:46:33;;;;;;;7.93;3.22;;;;;;;;;;4996425;28;20085;-68
2023/01/31 03:49:07;;;;;;;6.72;3.47;;;;;;;;;;4999070;28;20037;-65
2023/01/31 03:51:36;;;;;;;7.85;3.88;;;;;;;;;;4997428;28;20174;-65
2023/01/31 03:54:11;;;;;;;8.18;3.90;;;;;;;;;;4999345;28;20489;-68
2023/01/31 03:56:40;;;;;;;5.15;3.22;;;;;;;;;;4995866;28;20056;-66
2023/01/31 03:59:14;;;;;;;8.35;3.25;;;;;;;;;;5001378;28;20057;-74
2023/01/31 04:01:44;;;;;;;5.50;3.20;;;;;;;;;;4996636;28;20204;-74
2023/01/31 04:04:16;;;;;;;8.38;3.03;;;;;;;;;;4998540;28;20049;-66
2023/01/31 04:06:42;;;;;;;7.05;3.15;;;;;;;;;;4999369;28;20173;-65
2023/01/31 04:09:08;;;;;;;9.13;3.40;;;;;;;;;;5002155;28;20068;-66
2023/01/31 04:11:39;;;;;;;4.68;3.00;;;;;;;;;;4994411;28;20057;-68
2023/01/31 04:14:07;;;;;;;7.22;3.35;;;;;;;;;;4992460;28;20054;-67
2023/01/31 04:16:32;;;;;;;5.45;3.13;;;;;;;;;;5000266;28;20041;-70
2023/01/31 04:18:58;;;;;;;5.32;3.22;;;;;;;;;;4999951;28;20068;-66
2023/01/31 04:21:24;;;;;;;5.13;3.30;;;;;;;;;;4997289;28;20499;-69
2023/01/31 04:23:50;;;;;;;7.13;3.60;;;;;;;;;;5000579;28;20050;-65
2023/01/31 04:26:16;;;;;;;7.45;3.40;;;;;;;;;;5000840;28;20042;-69
2023/01/31 04:28:42;;;;;;;5.82;3.20;;;;;;;;;;4998234;28;20826;-66
2023/01/31 04:31:08;;;;;;;7.25;3.25;;;;;;;;;;4994981;28;20053;-69
2023/01/31 04:33:34;;;;;;;8.13;3.40;;;;;;;;;;4994672;28;20050;-65
2023/01/31 04:36:00;;;;;;;4.75;3.35;;;;;;;;;;4994796;28;20121;-65
2023/01/31 04:38:26;;;;;;;7.95;3.20;;;;;;;;;;4991167;28;20084;-66
2023/01/31 04:40:52;;;;;;;6.60;3.38;;;;;;;;;;4999864;28;20442;-66
2023/01/31 04:43:18;;;;;;;5.00;3.53;;;;;;;;;;4996506;28;20629;-66
2023/01/31 04:45:44;;;;;;;9.85;3.33;;;;;;;;;;4996444;28;20042;-70
2023/01/31 04:48:10;;;;;;;4.65;3.15;;;;;;;;;;5000562;28;20116;-68
2023/01/31 04:50:36;;;;;;;5.38;3.33;;;;;;;;;;4996909;28;20053;-68
2023/01/31 04:53:03;;;;;;;6.70;3.28;;;;;;;;;;4992451;28;20141;-66
2023/01/31 04:55:29;;;;;;;6.60;3.35;;;;;;;;;;4993790;28;20038;-66
2023/01/31 04:57:55;;;;;;;7.68;3.78;;;;;;;;;;4999062;28;20050;-69
2023/01/31 05:00:21;;;;;;;8.35;3.53;;;;;;;;;;5001343;28;20434;-66
2023/01/31 05:02:49;;;;;;;6.60;3.60;;;;;;;;;;4997916;28;20589;-69
2023/01/31 05:05:15;;;;;;;9.13;3.65;;;;;;;;;;5000567;28;20061;-67
2023/01/31 05:07:43;;;;;;;6.28;3.65;;;;;;;;;;4997341;28;20487;-68
2023/01/31 05:10:09;;;;;;;5.65;3.55;;;;;;;;;;5000251;28;20383;-67
2023/01/31 05:12:36;;;;;;;7.90;3.50;;;;;;;;;;4992923;28;20503;-66
2023/01/31 05:15:02;;;;;;;6.15;3.75;;;;;;;;;;5003828;28;20080;-67
2023/01/31 05:17:29;;;;;;;6.07;4.07;;;;;;;;;;5006176;28;20499;-68
2023/01/31 05:19:57;;;;;;;7.78;3.58;;;;;;;;;;5007824;28;20041;-71
2023/01/31 05:22:23;;;;;;;5.63;3.83;;;;;;;;;;5001929;28;20590;-69
2023/01/31 05:24:50;;;;;;;12.68;3.88;;;;;;;;;;5005609;28;20066;-71
2023/01/31 05:27:16;;;;;;;12.27;4.05;;;;;;;;;;4999600;28;20088;-70
2023/01/31 05:29:42;;;;;;;8.57;4.07;;;;;;;;;;5004843;28;20046;-70
2023/01/31 05:32:08;;;;;;;7.72;4.00;;;;;;;;;;5002344;28;20045;-69
2023/01/31 05:34:34;;;;;;;11.00;3.70;;;;;;;;;;5004332;28;20385;-65
2023/01/31 05:37:01;;;;;;;5.60;3.38;;;;;;;;;;5000629;28;20461;-70
2023/01/31 05:39:27;;;;;;;6.70;3.70;;;;;;;;;;5004302;28;20038;-66
2023/01/31 05:41:54;;;;;;;5.40;3.40;;;;;;;;;;5000102;28;20104;-68
2023/01/31 05:44:20;;;;;;;7.03;3.60;;;;;;;;;;5000231;28;20038;-69
2023/01/31 05:46:46;;;;;;;8.10;3.28;;;;;;;;;;5002682;28;20054;-67
2023/01/31 05:49:12;;;;;;;6.78;3.53;;;;;;;;;;5001908;28;20108;-72
2023/01/31 05:51:40;;;;;;;10.80;2.97;;;;;;;;;;4999204;28;20481;-68
2023/01/31 05:54:06;;;;;;;7.03;3.03;;;;;;;;;;5002373;28;20056;-69
2023/01/31 05:56:32;;;;;;;10.52;3.90;;;;;;;;;;5002673;28;20054;-70
2023/01/31 05:58:59;;;;;;;8.05;3.17;;;;;;;;;;5004405;28;20064;-66
2023/01/31 06:01:26;;;;;;;6.63;2.70;;;;;;;;;;4998446;28;20046;-71
2023/01/31 06:03:52;;;;;;;9.77;3.13;;;;;;;;;;5002163;28;20046;-65
2023/01/31 06:06:20;;;;;;;8.60;3.17;;;;;;;;;;5002753;28;20305;-69
2023/01/31 06:08:46;;;;;;;6.03;2.92;;;;;;;;;;5002340;28;20045;-71
2023/01/31 06:11:13;;;;;;;7.95;3.20;;;;;;;;;;5001920;28;20144;-71
2023/01/31 06:13:42;;;;;;;5.30;2.95;;;;;;;;;;4998897;28;20065;-66
2023/01/31 06:16:08;;;;;;;9.05;3.10;;;;;;;;;;5002198;28;20058;-65
2023/01/31 06:18:34;;;;;;;9.70;3.35;;;;;;;;;;5001583;28;20065;-66
2023/01/31 06:21:01;;;;;;;6.88;2.97;;;;;;;;;;5000613;28;20061;-68
2023/01/31 06:23:27;;;;;;;8.82;3.63;;;;;;;;;;5000021;28;20049;-69
2023/01/31 06:25:54;;;;;;;11.20;3.60;;;;;;;;;;5000571;28;20053;-66
2023/01/31 06:28:20;;;;;;;7.55;3.58;;;;;;;;;;5001921;28;20407;-69
2023/01/31 06:30:47;;;;;;;9.23;4.18;;;;;;;;;;4994782;28;20054;-68
2023/01/31 06:33:13;;;;;;;12.57;3.80;;;;;;;;;;5002147;28;20149;-67
2023/01/31 06:35:39;;;;;;;9.25;3.60;;;;;;;;;;5000861;28;20407;-69
2023/01/31 06:38:06;;;;;;;7.82;3.72;;;;;;;;;;5000184;28;20494;-65
2023/01/31 06:40:32;;;;;;;9.05;4.28;;;;;;;;;;5002651;28;20057;-69
2023/01/31 06:42:58;;;;;;;9.35;3.92;;;;;;;;;;4996723;28;20184;-67
2023/01/31 06:45:24;;;;;;;8.88;3.92;;;;;;;;;;5001970;28;20057;-67
2023/01/31 06:47:50;;;;;;;8.23;3.90;;;;;;;;;;4999536;28;20491;-70
2023/01/31 06:50:17;;;;;;;7.65;3.85;;;;;;;;;;5001414;28;20065;-67
2023/01/31 06:52:43;;;;;;;10.20;3.72;;;;;;;;;;4997709;28;20462;-68
2023/01/31 06:55:10;;;;;;;16.27;4.38;;;;;;;;;;5003224;28;20054;-70
2023/01/31 06:57:36;;;;;;;6.60;3.90;;;;;;;;;;5000123;28;20053;-67
2023/01/31 07:00:03;;;;;;;11.02;3.95;;;;;;;;;;4999738;28;20503;-67
2023/01/31 07:02:29;;;;;;;10.85;4.53;;;;;;;;;;5001413;28;20057;-69
2023/01/31 07:04:55;;;;;;;16.25;3.90;;;;;;;;;;5003506;28;20077;-72
2023/01/31 07:07:20;;;;;;;9.45;3.65;;;;;;;;;;4999591;28;20519;-69
2023/01/31 07:09:46;;;;;;;6.60;3.50;;;;;;;;;;4996156;28;20388;-70
2023/01/31 07:12:12;;;;;;;12.10;3.97;;;;;;;;;;5000170;28;20135;-70
2023/01/31 07:14:38;;;;;;;10.55;3.60;;;;;;;;;;4997094;28;20430;-68
2023/01/31 07:17:04;;;;;;;8.57;3.90;;;;;;;;;;4999240;28;20041;-66
2023/01/31 07:19:30;;;;;;;7.38;3.75;;;;;;;;;;4997241;28;20046;-69
2023/01/31 07:21:56;;;;;;;14.00;4.45;;;;;;;;;;5001666;28;20052;-70
2023/01/31 07:24:22;;;;;;;7.55;3.90;;;;;;;;;;4999565;28;20065;-71
2023/01/31 07:26:51;;;;;;;10.50;3.70;;;;;;;;;;5001230;28;20498;-70
2023/01/31 07:29:17;;;;;;;35.15;16.20;;;;;;;;;;4998039;28;20053;-72
2023/01/31 07:31:43;;;;;;;11.32;6.20;;;;;;;;;;4998673;28;20530;-71
2023/01/31 07:34:09;;;;;;;11.98;5.47;;;;;;;;;;4999798;28;20054;-67
2023/01/31 07:36:35;;;;;;;17.02;5.88;;;;;;;;;;4997686;28;20089;-68
2023/01/31 07:39:01;;;;;;;15.05;5.90;;;;;;;;;;5002058;28;20092;-77
2023/01/31 07:41:27;;;;;;;13.35;6.07;;;;;;;;;;5002779;28;20038;-72
2023/01/31 07:43:55;;;;;;;13.32;5.70;;;;;;;;;;4999530;28;20100;-72
2023/01/31 07:46:21;;;;;;;12.30;4.95;;;;;;;;;;5000074;28;20054;-72
2023/01/31 07:48:47;;;;;;;10.73;4.32;;;;;;;;;;5001076;28;20121;-71
2023/01/31 07:51:12;;;;;;;10.18;4.63;;;;;;;;;;5002301;28;20168;-72
2023/01/31 07:53:41;;;;;;;12.90;3.72;;;;;;;;;;4999677;28;20060;-68
2023/01/31 07:56:16;;;;;;;11.25;4.00;;;;;;;;;;4999211;28;20141;-73
2023/01/31 07:58:44;;;;;;;7.35;3.47;;;;;;;;;;5001701;28;20058;-69
2023/01/31 08:04:06;;;;;;;9.13;3.65;;;;;;;;;;5000950;28;20049;-76
2023/01/31 08:06:32;;;;;;;12.48;3.53;;;;;;;;;;5003655;28;20048;-77
2023/01/31 08:09:00;;;;;;;9.93;3.60;;;;;;;;;;5002110;28;20071;-73
2023/01/31 08:11:26;;;;;;;10.80;3.83;;;;;;;;;;5002312;28;20100;-74
2023/01/31 08:13:52;;;;;;;8.32;3.83;;;;;;;;;;5003030;28;20084;-73
2023/01/31 08:16:19;;;;;;;9.27;3.80;;;;;;;;;;5004944;28;20700;-71
2023/01/31 08:18:50;;;;;;;10.98;3.33;;;;;;;;;;5003909;28;20527;-73
2023/01/31 08:21:16;;;;;;;7.38;3.75;;;;;;;;;;5001995;28;20046;-74
2023/01/31 08:23:42;;;;;;;9.30;3.75;;;;;;;;;;4998628;28;20129;-73
2023/01/31 08:26:19;;;;;;;10.65;3.80;;;;;;;;;;5000176;28;20176;-73
2023/01/31 08:28:46;;;;;;;7.05;3.47;;;;;;;;;;4999393;28;20057;-74
2023/01/31 08:31:18;;;;;;;9.57;3.17;;;;;;;;;;5001052;28;20503;-75
2023/01/31 08:33:44;;;;;;;7.93;3.55;;;;;;;;;;5002394;28;20060;-74
2023/01/31 08:36:15;;;;;;;10.55;3.47;;;;;;;;;;5004383;28;20410;-73
2023/01/31 08:38:41;;;;;;;8.02;4.65;;;;;;;;;;5006037;28;20066;-75
2023/01/31 08:41:07;;;;;;;14.13;5.90;;;;;;;;;;5004840;28;20076;-74
2023/01/31 08:43:33;;;;;;;12.93;5.43;;;;;;;;;;5005917;28;20108;-73
2023/01/31 08:45:59;;;;;;;13.55;5.20;;;;;;;;;;5008184;28;20053;-73
2023/01/31 08:48:25;;;;;;;13.43;5.97;;;;;;;;;;5006039;28;20045;-76
2023/01/31 08:50:51;;;;;;;16.13;5.53;;;;;;;;;;5001376;28;20085;-73
2023/01/31 08:53:17;;;;;;;10.40;5.13;;;;;;;;;;5005431;28;20062;-74
2023/01/31 08:55:43;;;;;;;9.45;5.03;;;;;;;;;;5001237;28;20053;-72
2023/01/31 08:58:09;;;;;;;10.10;4.85;;;;;;;;;;5003430;28;20056;-70
2023/01/31 09:00:35;;;;;;;13.30;5.53;;;;;;;;;;5004704;28;20050;-73
2023/01/31 09:03:01;;;;;;;10.45;5.00;;;;;;;;;;5001645;28;20241;-68
2023/01/31 09:05:29;;;;;;;13.07;5.68;;;;;;;;;;5000707;28;20128;-74
2023/01/31 09:07:55;;;;;;;19.27;6.38;;;;;;;;;;5003442;28;20050;-71
2023/01/31 09:10:22;;;;;;;13.10;5.60;;;;;;;;;;5001823;28;20042;-73
2023/01/31 09:12:48;;;;;;;14.65;6.22;;;;;;;;;;4998842;28;20405;-70
2023/01/31 09:15:14;;;;;;;14.00;6.68;;;;;;;;;;5002436;28;20069;-76
2023/01/31 09:17:41;;;;;;;22.58;7.38;;;;;;;;;;5004996;28;20049;-75
2023/01/31 09:20:09;;;;;;;21.25;8.93;;;;;;;;;;5006564;28;20399;-68
2023/01/31 09:22:36;;;;;;;26.70;8.60;;;;;;;;;;5007156;28;20061;-69
2023/01/31 09:25:02;;;;;;;18.05;8.45;;;;;;;;;;5006922;28;20081;-71
2023/01/31 09:27:29;;;;;;;16.73;8.48;;;;;;;;;;5006886;28;20046;-73
2023/01/31 09:29:55;;;;;;;25.55;8.15;;;;;;;;;;5006086;28;20105;-72
2023/01/31 09:32:21;;;;;;;18.15;7.25;;;;;;;;;;5004085;28;20112;-72
2023/01/31 09:34:50;;;;;;;19.02;7.22;;;;;;;;;;5004222;28;20077;-67
2023/01/31 09:37:16;;;;;;;13.75;6.07;;;;;;;;;;5005136;28;20045;-71
2023/01/31 09:39:42;;;;;;;14.98;5.65;;;;;;;;;;4995378;28;20049;-74
2023/01/31 09:42:29;;;;;;;8.70;4.70;;;;;;;;;;4998653;28;20771;-75
2023/01/31 09:44:55;;;;;;;11.10;4.65;;;;;;;;;;4997903;28;20058;-72
2023/01/31 09:47:29;;;;;;;12.43;4.13;;;;;;;;;;4996319;28;20168;-75
2023/01/31 09:50:01;;;;;;;7.93;3.93;;;;;;;;;;4998556;28;20062;-74
2023/01/31 09:52:30;;;;;;;10.65;3.80;;;;;;;;;;5000189;28;20046;-70
2023/01/31 09:54:56;;;;;;;7.18;3.78;;;;;;;;;;5002990;28;20038;-72
2023/01/31 09:57:28;;;;;;;9.30;4.00;;;;;;;;;;4996464;28;20046;-71
2023/01/31 10:00:27;;;;;;;9.27;3.90;;;;;;;;;;4997052;28;20506;-72
2023/01/31 10:03:24;;;;;;;8.52;3.60;;;;;;;;;;4999670;28;20058;-73
2023/01/31 10:06:06;;;;;;;6.35;4.35;;;;;;;;;;5003841;28;20109;-70
2023/01/31 10:08:42;;;;;;;7.28;3.95;;;;;;;;;;5000615;28;20053;-72
2023/01/31 10:11:28;;;;;;;8.45;3.58;;;;;;;;;;5006675;28;20060;-69
2023/01/31 10:14:00;;;;;;;10.90;3.85;;;;;;;;;;4996631;28;20542;-72
2023/01/31 10:16:44;;;;;;;6.65;3.55;;;;;;;;;;5004332;28;20068;-74
2023/01/31 10:19:24;;;;;;;9.55;3.60;;;;;;;;;;5007757;28;20037;-76
2023/01/31 10:21:54;;;;;;;8.60;4.22;;;;;;;;;;5008718;28;20502;-71
2023/01/31 10:24:27;;;;;;;6.20;3.00;;;;;;;;;;5006867;28;20050;-71
2023/01/31 10:26:59;;;;;;;8.50;3.63;;;;;;;;;;4997550;28;20050;-71
2023/01/31 10:29:40;;;;;;;7.65;3.47;;;;;;;;;;5006871;28;20046;-71
2023/01/31 10:32:27;;;;;;;10.18;3.40;;;;;;;;;;5003540;28;20050;-70
2023/01/31 10:34:59;;;;;;;6.75;3.40;;;;;;;;;;5006680;28;20322;-69
2023/01/31 10:37:38;;;;;;;10.15;3.50;;;;;;;;;;5003931;28;20046;-69
2023/01/31 10:40:18;;;;;;;6.75;3.30;;;;;;;;;;4983667;28;20068;-70
2023/01/31 10:42:51;;;;;;;9.32;3.00;;;;;;;;;;4995475;28;20334;-69
2023/01/31 10:45:29;;;;;;;6.13;3.07;;;;;;;;;;4996883;28;20058;-68
2023/01/31 10:48:14;;;;;;;9.52;3.63;;;;;;;;;;5007295;28;20050;-73
2023/01/31 10:51:05;;;;;;;9.25;3.40;;;;;;;;;;5008091;28;20053;-71
2023/01/31 10:53:47;;;;;;;5.22;2.85;;;;;;;;;;5007240;28;20534;-74
2023/01/31 10:56:33;;;;;;;10.95;4.78;;;;;;;;;;5008318;28;20050;-73
2023/01/31 10:59:04;;;;;;;5.65;2.97;;;;;;;;;;5007002;28;20046;-72
2023/01/31 11:01:30;;;;;;;4.88;2.40;;;;;;;;;;5002450;28;20438;-76
2023/01/31 11:03:56;;;;;;;8.40;3.00;;;;;;;;;;5008624;28;20046;-71
2023/01/31 11:06:23;;;;;;;6.50;3.25;;;;;;;;;;5002383;28;20428;-69
2023/01/31 11:09:00;;;;;;;4.10;2.78;;;;;;;;;;5007962;28;20076;-72
2023/01/31 11:11:28;;;;;;;8.02;2.58;;;;;;;;;;5007484;28;20360;-74
2023/01/31 11:14:02;;;;;;;7.57;3.70;;;;;;;;;;5011251;28;20117;-73
2023/01/31 11:16:35;;;;;;;7.05;2.60;;;;;;;;;;5006530;28;20049;-71
2023/01/31 11:19:11;;;;;;;4.93;2.38;;;;;;;;;;4998782;28;20065;-74
2023/01/31 11:21:38;;;;;;;6.47;2.38;;;;;;;;;;5003123;28;20576;-76
2023/01/31 11:24:16;;;;;;;3.35;1.88;;;;;;;;;;5008188;28;20574;-76
2023/01/31 11:27:02;;;;;;;5.32;2.20;;;;;;;;;;5005461;28;20050;-71
2023/01/31 11:29:56;;;;;;;4.00;2.00;;;;;;;;;;4999870;28;20072;-75
2023/01/31 11:32:33;;;;;;;5.97;2.63;;;;;;;;;;5002436;28;20062;-75
2023/01/31 11:35:05;;;;;;;4.68;2.10;;;;;;;;;;5000630;28;20045;-74
2023/01/31 11:37:33;;;;;;;2.55;1.70;;;;;;;;;;5004022;28;20062;-73
2023/01/31 11:39:58;;;;;;;2.40;1.35;;;;;;;;;;4996372;28;20050;-73
2023/01/31 11:42:25;;;;;;;2.92;1.90;;;;;;;;;;5002077;28;20062;-75
2023/01/31 11:45:17;;;;;;;5.80;2.30;;;;;;;;;;4999389;28;20519;-72
2023/01/31 11:47:47;;;;;;;2.88;1.83;;;;;;;;;;4999039;28;20057;-74
2023/01/31 11:50:19;;;;;;;4.13;1.98;;;;;;;;;;4999431;28;20057;-70
2023/01/31 11:52:45;;;;;;;3.40;1.88;;;;;;;;;;4998969;28;20505;-75
2023/01/31 11:55:16;;;;;;;5.13;2.00;;;;;;;;;;5000189;28;20041;-74
2023/01/31 11:57:42;;;;;;;5.45;2.10;;;;;;;;;;4999297;28;20049;-72
2023/01/31 12:00:27;;;;;;;3.47;1.75;;;;;;;;;;4998034;28;20495;-76
2023/01/31 12:03:12;;;;;;;3.33;1.90;;;;;;;;;;4998304;28;20072;-74
2023/01/31 12:05:41;;;;;;;7.68;2.38;;;;;;;;;;5001992;28;20525;-75
2023/01/31 12:08:28;;;;;;;4.68;2.00;;;;;;;;;;5000632;28;20088;-73
2023/01/31 12:10:55;;;;;;;4.60;2.03;;;;;;;;;;5007692;28;20042;-76
2023/01/31 12:13:22;;;;;;;13.98;2.50;;;;;;;;;;5007129;28;20520;-74
2023/01/31 12:16:05;;;;;;;5.32;2.22;;;;;;;;;;5000693;28;20585;-75
2023/01/31 12:18:37;;;;;;;3.80;2.10;;;;;;;;;;5003971;28;20050;-75
2023/01/31 12:21:15;;;;;;;5.07;2.25;;;;;;;;;;5004907;28;20095;-73
2023/01/31 12:24:06;;;;;;;6.18;2.28;;;;;;;;;;5002421;28;20089;-74
2023/01/31 12:26:49;;;;;;;4.40;2.22;;;;;;;;;;4997970;28;20144;-75
2023/01/31 12:29:18;;;;;;;5.43;2.50;;;;;;;;;;5000155;28;20080;-73
2023/01/31 12:32:21;;;;;;;4.10;2.40;;;;;;;;;;4997806;28;20058;-77
2023/01/31 12:35:15;;;;;;;5.97;2.65;;;;;;;;;;5001085;28;20058;-74
2023/01/31 12:38:04;;;;;;;3.72;2.30;;;;;;;;;;5000086;28;20064;-73
2023/01/31 12:40:46;;;;;;;5.45;2.67;;;;;;;;;;5003115;28;20380;-77
2023/01/31 12:43:24;;;;;;;6.38;2.45;;;;;;;;;;5002990;28;20495;-74
2023/01/31 12:46:10;;;;;;;5.38;3.28;;;;;;;;;;4996067;28;20481;-75
2023/01/31 12:48:55;;;;;;;5.55;2.92;;;;;;;;;;4999805;28;20514;-77
2023/01/31 12:51:31;;;;;;;7.13;3.50;;;;;;;;;;4997184;28;20058;-74
2023/01/31 12:54:14;;;;;;;8.82;3.80;;;;;;;;;;4999245;28;20057;-75
2023/01/31 12:57:16;;;;;;;8.82;3.28;;;;;;;;;;4997000;28;20045;-76
2023/01/31 12:59:42;;;;;;;9.05;4.00;;;;;;;;;;4993866;28;20302;-73
2023/01/31 13:02:43;;;;;;;11.75;3.83;;;;;;;;;;4996906;28;20502;-76
2023/01/31 13:05:20;;;;;;;6.72;3.50;;;;;;;;;;4996977;28;20064;-75
2023/01/31 13:07:57;;;;;;;7.97;4.30;;;;;;;;;;4993658;28;20045;-75
2023/01/31 13:10:34;;;;;;;7.70;3.65;;;;;;;;;;4994751;28;20054;-76
2023/01/31 13:13:01;;;;;;;6.88;3.50;;;;;;;;;;4999323;28;20054;-74
2023/01/31 13:15:41;;;;;;;5.35;3.22;;;;;;;;;;4998674;28;20507;-74
2023/01/31 13:18:10;;;;;;;5.90;2.70;;;;;;;;;;4994184;28;20073;-75
2023/01/31 13:20:44;;;;;;;8.70;2.88;;;;;;;;;;4994223;28;20491;-76
2023/01/31 13:23:28;;;;;;;5.60;2.80;;;;;;;;;;4996688;28;20054;-75
2023/01/31 13:26:07;;;;;;;6.07;2.50;;;;;;;;;;5002095;28;20050;-75
2023/01/31 13:28:45;;;;;;;6.45;2.38;;;;;;;;;;5001158;28;20058;-75
2023/01/31 13:31:19;;;;;;;3.30;2.28;;;;;;;;;;4991050;28;20136;-75
2023/01/31 13:34:21;;;;;;;6.28;1.90;;;;;;;;;;5002384;28;20050;-76
2023/01/31 13:36:51;;;;;;;4.28;1.90;;;;;;;;;;4999477;28;20050;-73
2023/01/31 13:39:25;;;;;;;6.97;1.90;;;;;;;;;;5000424;28;20720;-73
2023/01/31 13:41:51;;;;;;;2.10;1.40;;;;;;;;;;5000758;28;20054;-74
2023/01/31 13:44:19;;;;;;;5.43;1.77;;;;;;;;;;5003205;28;20462;-75
2023/01/31 13:47:03;;;;;;;4.22;1.85;;;;;;;;;;5004168;28;20057;-75
2023/01/31 13:49:38;;;;;;;6.80;2.10;;;;;;;;;;5000040;28;20062;-74
2023/01/31 13:52:11;;;;;;;7.30;2.58;;;;;;;;;;5006057;28;20046;-76
2023/01/31 13:54:47;;;;;;;4.78;2.60;;;;;;;;;;5005828;28;20046;-74
2023/01/31 13:57:30;;;;;;;6.28;2.25;;;;;;;;;;5002467;28;20049;-74
2023/01/31 14:00:22;;;;;;;3.63;2.22;;;;;;;;;;5006518;28;20049;-77
2023/01/31 14:03:07;;;;;;;7.35;2.38;;;;;;;;;;5005634;28;20088;-79
2023/01/31 14:05:47;;;;;;;11.88;2.90;;;;;;;;;;5003064;28;20046;-79
2023/01/31 14:08:26;;;;;;;5.25;2.80;;;;;;;;;;5004424;28;20046;-77
2023/01/31 14:10:54;;;;;;;9.75;2.80;;;;;;;;;;5008727;28;20087;-79
2023/01/31 14:13:47;;;;;;;6.90;3.45;;;;;;;;;;5006848;28;20057;-75
2023/01/31 14:16:35;;;;;;;9.00;3.33;;;;;;;;;;5000874;28;20049;-76
2023/01/31 14:19:25;;;;;;;5.00;2.80;;;;;;;;;;5004565;28;20053;-73
2023/01/31 14:21:56;;;;;;;9.93;3.20;;;;;;;;;;5008637;28;20097;-77
2023/01/31 14:24:55;;;;;;;11.18;2.75;;;;;;;;;;5008497;28;20053;-78
2023/01/31 14:27:25;;;;;;;7.53;3.70;;;;;;;;;;5009012;28;20068;-77
2023/01/31 14:30:11;;;;;;;6.25;3.35;;;;;;;;;;5004547;28;20046;-75
2023/01/31 14:32:37;;;;;;;7.95;3.20;;;;;;;;;;4999963;28;20074;-79
2023/01/31 14:35:11;;;;;;;6.38;3.20;;;;;;;;;;5014380;28;20046;-76
2023/01/31 14:37:53;;;;;;;5.57;3.58;;;;;;;;;;5014377;28;20053;-75
2023/01/31 14:40:43;;;;;;;8.35;3.38;;;;;;;;;;5012987;28;20058;-77
2023/01/31 14:43:18;;;;;;;9.00;3.00;;;;;;;;;;5006532;28;20081;-74
2023/01/31 14:46:11;;;;;;;8.30;3.65;;;;;;;;;;5010853;28;20129;-76
2023/01/31 14:48:56;;;;;;;7.22;3.72;;;;;;;;;;5001927;28;20041;-78
2023/01/31 14:51:40;;;;;;;;;;;;;;;;;;5013454;28;20060;-74
2023/01/31 14:54:06;;;;;;;8.07;3.85;;;;;;;;;;5013614;28;20397;-74
2023/01/31 14:56:35;;;;;;;5.85;3.25;;;;;;;;;;5017007;28;20070;-75
2023/01/31 14:59:02;;;;;;;7.60;2.95;;;;;;;;;;5004744;28;20507;-76
2023/01/31 15:01:35;;;;;;;7.75;3.13;;;;;;;;;;5008172;28;20045;-75
2023/01/31 15:04:03;;;;;;;;;;;;;;;;;;5005246;28;20494;-75
2023/01/31 15:06:32;;;;;;;4.65;2.90;;;;;;;;;;4999951;28;19922;-79
2023/01/31 15:09:28;;;;;;;4.35;2.88;;;;;;;;;;5010495;28;20077;-75
2023/01/31 15:11:56;;;;;;;6.35;2.88;;;;;;;;;;5010073;28;20038;-74
2023/01/31 15:14:40;;;;;;;5.50;2.83;;;;;;;;;;5009137;28;20042;-78
2023/01/31 15:17:22;;;;;;;5.70;2.87;;;;;;;;;;5006764;28;20037;-78
2023/01/31 15:19:57;;;;;;;5.97;2.90;;;;;;;;;;5005453;28;20077;-78